Time;durP1;ratioP1;P1;durP2;ratioP2;P2;SDS_P1;SDS_P2;PMS_P1;PMS_P2;Temp;Humidity;BMP_temperature;BMP_pressure;BME280_temperature;BME280_humidity;BME280_pressure;Samples;Min_cycle;Max_cycle;Signal;HPM_P1;HPM_P2
2024/01/15 00:01:33;;;;;;;44.13;24.67;;;-1.00;99.90;;;;;;5075830;28;20642;-75
2024/01/15 00:03:59;;;;;;;44.90;23.47;;;-1.00;99.90;;;;;;5093121;28;20180;-75
2024/01/15 00:06:26;;;;;;;49.73;23.97;;;-1.00;99.90;;;;;;5074859;28;20215;-75
2024/01/15 00:08:52;;;;;;;48.70;24.33;;;-1.00;99.90;;;;;;5075071;28;20269;-75
2024/01/15 00:11:17;;;;;;;49.63;25.07;;;-1.10;99.90;;;;;;5074952;28;20169;-75
2024/01/15 00:13:43;;;;;;;43.03;24.53;;;-1.10;99.90;;;;;;5075466;28;20244;-75
2024/01/15 00:16:08;;;;;;;52.10;25.33;;;-1.20;99.90;;;;;;5075105;28;20268;-75
2024/01/15 00:18:34;;;;;;;40.73;21.83;;;-1.20;99.90;;;;;;5074880;28;20165;-75
2024/01/15 00:20:59;;;;;;;47.37;23.17;;;-1.10;99.90;;;;;;5075394;28;20177;-75
2024/01/15 00:23:25;;;;;;;45.07;23.83;;;-1.10;99.90;;;;;;5078452;28;20179;-75
2024/01/15 00:25:51;;;;;;;45.10;24.00;;;-1.10;99.90;;;;;;5079123;28;20177;-75
2024/01/15 00:28:17;;;;;;;39.60;22.20;;;-1.10;99.90;;;;;;5078337;28;20658;-75
2024/01/15 00:30:42;;;;;;;41.17;22.23;;;-1.10;99.90;;;;;;5096346;28;20169;-75
2024/01/15 00:33:08;;;;;;;46.23;23.53;;;-1.10;99.90;;;;;;5078181;28;20264;-75
2024/01/15 00:35:36;;;;;;;42.20;22.43;;;-1.10;99.90;;;;;;5078195;28;20205;-75
2024/01/15 00:38:02;;;;;;;46.47;23.03;;;-1.10;99.90;;;;;;5078101;28;20222;-75
2024/01/15 00:40:27;;;;;;;41.87;20.70;;;-1.10;99.90;;;;;;5078460;28;20264;-75
2024/01/15 00:42:53;;;;;;;42.23;21.80;;;-1.20;99.90;;;;;;5078063;28;20583;-75
2024/01/15 00:45:19;;;;;;;44.17;22.30;;;-1.20;99.90;;;;;;5077944;28;20185;-75
2024/01/15 00:47:44;;;;;;;41.57;21.87;;;-1.20;99.90;;;;;;5078217;28;20208;-75
2024/01/15 00:50:10;;;;;;;42.90;21.33;;;-1.20;99.90;;;;;;5078624;28;20181;-75
2024/01/15 00:52:36;;;;;;;40.30;21.70;;;-1.20;99.90;;;;;;5077915;28;20177;-75
2024/01/15 00:55:01;;;;;;;44.10;22.53;;;-1.30;99.90;;;;;;5077769;28;20211;-75
2024/01/15 00:57:27;;;;;;;39.63;20.90;;;-1.30;99.90;;;;;;5077731;28;20196;-75
2024/01/15 00:59:52;;;;;;;42.57;21.33;;;-1.30;99.90;;;;;;5077774;28;20517;-75
2024/01/15 01:02:18;;;;;;;36.40;20.43;;;-1.30;99.90;;;;;;5077776;28;20226;-75
2024/01/15 01:04:43;;;;;;;39.30;21.97;;;-1.30;99.90;;;;;;5095973;28;20222;-75
2024/01/15 01:07:09;;;;;;;38.50;20.47;;;-1.40;99.90;;;;;;5077498;28;20208;-75
2024/01/15 01:09:34;;;;;;;38.80;21.63;;;-1.30;99.90;;;;;;5095941;28;20192;-75
2024/01/15 01:12:00;;;;;;;37.03;20.40;;;-1.30;99.90;;;;;;5077537;28;20180;-75
2024/01/15 01:14:25;;;;;;;34.93;19.00;;;-1.40;99.90;;;;;;5077656;28;20213;-75
2024/01/15 01:16:51;;;;;;;39.50;21.60;;;-1.30;99.90;;;;;;5077266;28;20196;-75
2024/01/15 01:19:17;;;;;;;36.93;20.43;;;-1.30;99.90;;;;;;5077434;28;20173;-75
2024/01/15 01:21:42;;;;;;;37.13;20.50;;;-1.30;99.90;;;;;;5078202;28;20530;-75
2024/01/15 01:24:08;;;;;;;39.83;20.30;;;-1.40;99.90;;;;;;5095379;28;20173;-75
2024/01/15 01:26:33;;;;;;;41.30;21.47;;;-1.30;99.90;;;;;;5077419;28;20204;-75
2024/01/15 01:28:59;;;;;;;37.40;20.03;;;-1.40;99.90;;;;;;5077496;28;20184;-75
2024/01/15 01:31:24;;;;;;;35.93;19.77;;;-1.40;99.90;;;;;;5077291;28;20185;-75
2024/01/15 01:33:50;;;;;;;34.27;19.23;;;-1.40;99.90;;;;;;5095007;28;20215;-75
2024/01/15 01:36:16;;;;;;;36.17;19.07;;;-1.50;99.90;;;;;;5077377;28;20197;-76
2024/01/15 01:38:41;;;;;;;31.33;18.23;;;-1.50;99.90;;;;;;5077402;28;20264;-76
2024/01/15 01:41:07;;;;;;;32.87;19.07;;;-1.40;99.90;;;;;;5077271;28;20212;-76
2024/01/15 01:43:33;;;;;;;31.60;18.23;;;-1.50;99.90;;;;;;5076923;28;20180;-76
2024/01/15 01:46:01;;;;;;;31.50;17.77;;;-1.40;99.90;;;;;;5076918;28;20195;-76
2024/01/15 01:48:26;;;;;;;33.60;18.67;;;-1.40;99.90;;;;;;5095274;28;20180;-76
2024/01/15 01:50:56;;;;;;;30.90;18.07;;;-1.30;99.90;;;;;;5076970;28;20181;-76
2024/01/15 01:53:23;;;;;;;33.63;18.03;;;-1.40;99.90;;;;;;5076855;28;20184;-76
2024/01/15 01:55:49;;;;;;;28.13;16.33;;;-1.40;99.90;;;;;;5076665;28;20177;-76
2024/01/15 01:58:15;;;;;;;31.30;17.43;;;-1.40;99.90;;;;;;5076868;28;20173;-76
2024/01/15 02:19:35;;;;;;;35.00;18.00;;;-1.50;99.90;;;;;;5074861;28;20288;-73
2024/01/15 02:22:00;;;;;;;34.07;20.00;;;-1.60;99.90;;;;;;5056183;28;20264;-73
2024/01/15 02:24:26;;;;;;;31.50;18.80;;;-1.60;99.90;;;;;;5056431;28;20185;-73
2024/01/15 02:26:52;;;;;;;34.10;18.50;;;-1.50;99.90;;;;;;5056418;28;20212;-74
2024/01/15 02:29:17;;;;;;;35.17;18.57;;;-1.50;99.90;;;;;;5056049;28;20185;-73
2024/01/15 02:31:43;;;;;;;37.63;19.60;;;-1.50;99.90;;;;;;5056090;28;20265;-73
2024/01/15 02:34:08;;;;;;;33.90;18.60;;;-1.50;99.90;;;;;;5055871;28;20228;-73
2024/01/15 02:36:34;;;;;;;31.97;18.73;;;-1.60;99.90;;;;;;5055887;28;20200;-74
2024/01/15 02:38:59;;;;;;;34.40;19.43;;;-1.50;99.90;;;;;;5056256;28;20184;-73
2024/01/15 02:41:25;;;;;;;38.63;19.63;;;-1.50;99.90;;;;;;5073721;28;20194;-73
2024/01/15 02:43:51;;;;;;;40.80;20.10;;;-1.50;99.90;;;;;;5055469;28;20178;-73
2024/01/15 02:46:16;;;;;;;32.47;19.23;;;-1.50;99.90;;;;;;5055712;28;20247;-73
2024/01/15 02:48:42;;;;;;;31.07;17.30;;;-1.50;99.90;;;;;;5055721;28;20268;-73
2024/01/15 02:51:07;;;;;;;30.83;18.17;;;-1.40;99.90;;;;;;5056034;28;20189;-73
2024/01/15 02:53:33;;;;;;;33.60;19.07;;;-1.30;99.90;;;;;;5055886;28;20209;-73
2024/01/15 02:55:58;;;;;;;30.80;18.50;;;-1.40;99.90;;;;;;5055856;28;20205;-74
2024/01/15 02:58:24;;;;;;;30.60;17.60;;;-1.40;99.90;;;;;;5073472;28;20177;-74
2024/01/15 03:00:50;;;;;;;28.67;16.83;;;-1.40;99.90;;;;;;5073736;28;20204;-73
2024/01/15 03:03:15;;;;;;;30.63;17.73;;;-1.40;99.90;;;;;;5055513;28;20638;-73
2024/01/15 03:05:41;;;;;;;27.57;16.13;;;-1.40;99.90;;;;;;5055479;28;20181;-74
2024/01/15 03:08:06;;;;;;;26.70;16.27;;;-1.40;99.90;;;;;;5055430;28;20169;-73
2024/01/15 03:10:32;;;;;;;27.37;15.67;;;-1.30;99.90;;;;;;5055522;28;20177;-73
2024/01/15 03:12:57;;;;;;;28.47;16.30;;;-1.30;99.90;;;;;;5073434;28;20207;-73
2024/01/15 03:15:23;;;;;;;29.27;16.53;;;-1.30;99.90;;;;;;5073506;28;20259;-73
2024/01/15 03:17:48;;;;;;;27.00;15.90;;;-1.40;99.90;;;;;;5055211;28;20215;-73
2024/01/15 03:20:14;;;;;;;30.97;16.20;;;-1.40;99.90;;;;;;5055398;28;20173;-73
2024/01/15 03:22:39;;;;;;;27.47;16.03;;;-1.50;99.90;;;;;;5055338;28;20261;-73
2024/01/15 03:25:06;;;;;;;27.97;16.37;;;-1.40;99.90;;;;;;5055333;28;20189;-73
2024/01/15 03:27:32;;;;;;;26.23;15.07;;;-1.50;99.90;;;;;;5055567;28;20201;-74
2024/01/15 03:29:57;;;;;;;27.33;15.93;;;-1.40;99.90;;;;;;5055312;28;20193;-72
2024/01/15 03:32:23;;;;;;;28.33;16.13;;;-1.50;99.90;;;;;;5055505;28;20262;-72
2024/01/15 03:34:48;;;;;;;28.53;16.10;;;-1.50;99.90;;;;;;5055136;28;20205;-72
2024/01/15 03:37:14;;;;;;;26.73;15.37;;;-1.50;99.90;;;;;;5057120;28;20247;-75
2024/01/15 03:39:39;;;;;;;25.87;15.73;;;-1.50;99.90;;;;;;5058040;28;20185;-75
2024/01/15 03:42:07;;;;;;;27.33;16.40;;;-1.50;99.90;;;;;;5057983;28;20185;-75
2024/01/15 03:44:32;;;;;;;25.80;15.83;;;-1.40;99.90;;;;;;5058047;28;20192;-75
2024/01/15 03:46:58;;;;;;;26.93;16.20;;;-1.40;99.90;;;;;;5057969;28;20213;-76
2024/01/15 03:49:24;;;;;;;24.57;14.70;;;-1.40;99.90;;;;;;5073798;28;20169;-74
2024/01/15 03:52:02;;;;;;;25.90;15.40;;;-1.40;99.90;;;;;;5055070;28;20186;-73
2024/01/15 03:54:27;;;;;;;25.27;15.33;;;-1.30;99.90;;;;;;5055052;28;20574;-74
2024/01/15 03:56:53;;;;;;;27.47;17.10;;;-1.40;99.90;;;;;;5056983;28;20205;-74
2024/01/15 03:59:18;;;;;;;29.73;16.27;;;-1.40;99.90;;;;;;5058934;28;20189;-73
2024/01/15 04:01:50;;;;;;;26.17;15.77;;;-1.40;99.90;;;;;;5077088;28;20181;-73
2024/01/15 04:04:17;;;;;;;27.97;16.67;;;-1.40;99.90;;;;;;5058832;28;20268;-73
2024/01/15 04:06:42;;;;;;;27.07;15.53;;;-1.40;99.90;;;;;;5058602;28;20208;-73
2024/01/15 04:09:08;;;;;;;31.37;16.33;;;-1.40;99.90;;;;;;5058619;28;20185;-73
2024/01/15 04:11:33;;;;;;;27.07;15.93;;;-1.40;99.90;;;;;;5058764;28;20188;-73
2024/01/15 04:13:59;;;;;;;29.20;16.43;;;-1.40;99.90;;;;;;5058525;28;20205;-73
2024/01/15 04:16:24;;;;;;;29.43;17.40;;;-1.40;99.90;;;;;;5058669;28;20259;-73
2024/01/15 04:18:50;;;;;;;31.17;18.30;;;-1.40;99.90;;;;;;5058572;28;20177;-73
2024/01/15 04:21:17;;;;;;;29.10;17.23;;;-1.40;99.90;;;;;;5058843;28;20174;-73
2024/01/15 04:23:43;;;;;;;30.47;17.60;;;-1.50;99.90;;;;;;5076820;28;20196;-73
2024/01/15 04:26:08;;;;;;;35.37;21.13;;;-1.50;99.90;;;;;;5058405;28;20224;-73
2024/01/15 04:28:34;;;;;;;30.77;18.37;;;-1.50;99.90;;;;;;5058411;28;20188;-73
2024/01/15 04:31:00;;;;;;;33.27;18.60;;;-1.60;99.90;;;;;;5057977;28;20193;-73
2024/01/15 04:33:25;;;;;;;32.47;18.57;;;-1.60;99.90;;;;;;5059019;28;20231;-73
2024/01/15 04:35:51;;;;;;;34.37;18.67;;;-1.60;99.90;;;;;;5058169;28;20247;-73
2024/01/15 04:38:16;;;;;;;31.80;17.73;;;-1.60;99.90;;;;;;5058192;28;20184;-73
2024/01/15 04:40:42;;;;;;;32.77;18.83;;;-1.60;99.90;;;;;;5076331;28;20178;-73
2024/01/15 04:43:11;;;;;;;31.50;18.50;;;-1.60;99.90;;;;;;5075953;28;20201;-73
2024/01/15 04:45:36;;;;;;;31.77;18.60;;;-1.60;99.90;;;;;;5058082;28;20177;-74
2024/01/15 04:48:03;;;;;;;33.33;19.37;;;-1.60;99.90;;;;;;5058854;28;20185;-73
2024/01/15 04:50:28;;;;;;;32.50;17.73;;;-1.60;99.90;;;;;;5075865;28;20192;-73
2024/01/15 04:52:54;;;;;;;28.50;17.50;;;-1.60;99.90;;;;;;5058003;28;20177;-73
2024/01/15 04:55:19;;;;;;;29.30;16.43;;;-1.60;99.90;;;;;;5057798;28;20297;-75
2024/01/15 04:57:45;;;;;;;36.17;18.10;;;-1.60;99.90;;;;;;5057702;28;20219;-74
2024/01/15 05:00:12;;;;;;;32.87;18.53;;;-1.60;99.90;;;;;;5058049;28;20177;-74
2024/01/15 05:02:37;;;;;;;30.97;18.53;;;-1.60;99.90;;;;;;5058615;28;20178;-74
2024/01/15 05:05:03;;;;;;;31.30;17.93;;;-1.50;99.90;;;;;;5075753;28;20187;-74
2024/01/15 05:07:29;;;;;;;30.83;17.73;;;-1.50;99.90;;;;;;5076831;28;20197;-76
2024/01/15 05:09:54;;;;;;;26.33;15.73;;;-1.50;99.90;;;;;;5082725;28;20174;-76
2024/01/15 05:12:20;;;;;;;27.83;16.97;;;-1.40;99.90;;;;;;5079154;28;20178;-76
2024/01/15 05:14:45;;;;;;;28.47;16.10;;;-1.40;99.90;;;;;;5060540;28;20201;-76
2024/01/15 05:17:11;;;;;;;27.20;16.37;;;-1.40;99.90;;;;;;5059763;28;20267;-76
2024/01/15 05:19:36;;;;;;;29.87;17.00;;;-1.50;99.90;;;;;;5060596;28;20235;-76
2024/01/15 05:22:02;;;;;;;26.63;16.30;;;-1.50;99.90;;;;;;5061446;28;20178;-76
2024/01/15 05:24:27;;;;;;;30.80;16.47;;;-1.60;99.90;;;;;;5060359;28;20181;-76
2024/01/15 05:26:53;;;;;;;27.80;16.23;;;-1.70;99.90;;;;;;5060628;28;20202;-76
2024/01/15 05:29:18;;;;;;;25.73;14.80;;;-1.70;99.90;;;;;;5060294;28;20185;-76
2024/01/15 05:31:44;;;;;;;26.87;16.07;;;-1.70;99.90;;;;;;5059811;28;20177;-76
2024/01/15 05:34:10;;;;;;;25.53;14.97;;;-1.70;99.90;;;;;;5077289;28;20201;-76
2024/01/15 05:36:35;;;;;;;27.63;15.63;;;-1.80;99.90;;;;;;5059478;28;20193;-76
2024/01/15 05:39:01;;;;;;;30.13;16.73;;;-1.90;99.90;;;;;;5060292;28;20177;-76
2024/01/15 05:41:26;;;;;;;25.10;15.90;;;-1.90;99.90;;;;;;5063596;28;20181;-79
2024/01/15 05:43:52;;;;;;;29.87;15.80;;;-1.80;99.90;;;;;;5062051;28;20184;-76
2024/01/15 05:46:17;;;;;;;25.57;15.87;;;-1.90;99.90;;;;;;5061810;28;20205;-76
2024/01/15 05:48:43;;;;;;;28.90;15.67;;;-1.90;99.90;;;;;;5062062;28;20652;-76
2024/01/15 05:51:10;;;;;;;29.17;16.43;;;-1.90;99.90;;;;;;5062136;28;20231;-76
2024/01/15 05:53:35;;;;;;;27.23;16.13;;;-2.00;99.90;;;;;;5062825;28;20265;-77
2024/01/15 05:56:01;;;;;;;28.93;16.97;;;-2.00;99.90;;;;;;5062371;28;20229;-76
2024/01/15 05:58:27;;;;;;;25.77;15.33;;;-2.10;99.90;;;;;;5062632;28;20175;-77
2024/01/15 06:00:52;;;;;;;24.30;15.17;;;-2.10;99.90;;;;;;5062305;28;20178;-77
2024/01/15 06:03:18;;;;;;;28.53;15.50;;;-2.10;99.90;;;;;;5061766;28;20181;-77
2024/01/15 06:05:43;;;;;;;28.17;16.40;;;-2.20;99.90;;;;;;5061987;28;20293;-76
2024/01/15 06:08:09;;;;;;;31.33;16.37;;;-2.20;99.90;;;;;;5061977;28;20208;-77
2024/01/15 06:10:35;;;;;;;23.53;14.87;;;-2.20;99.90;;;;;;5062129;28;20201;-77
2024/01/15 06:13:01;;;;;;;29.10;16.00;;;-2.10;99.90;;;;;;5061129;28;20193;-77
2024/01/15 06:15:26;;;;;;;24.60;15.47;;;-2.00;99.90;;;;;;5054436;28;20194;-76
2024/01/15 06:17:52;;;;;;;28.27;15.90;;;-1.80;99.90;;;;;;5056524;28;20541;-76
2024/01/15 06:20:17;;;;;;;29.20;15.67;;;-1.70;99.90;;;;;;5053249;28;20170;-76
2024/01/15 06:22:43;;;;;;;23.10;14.60;;;-1.70;99.90;;;;;;5054026;28;20170;-76
2024/01/15 06:25:09;;;;;;;58.97;29.30;;;-1.60;99.90;;;;;;5058857;28;20178;-76
2024/01/15 06:27:34;;;;;;;34.70;20.47;;;-1.50;99.90;;;;;;5065107;28;20221;-76
2024/01/15 06:30:00;;;;;;;29.70;16.07;;;-1.50;99.90;;;;;;5065814;28;20181;-76
2024/01/15 06:32:25;;;;;;;27.63;16.07;;;-1.50;99.90;;;;;;5064860;28;20182;-76
2024/01/15 06:34:51;;;;;;;28.63;15.90;;;-1.40;99.90;;;;;;5055133;28;20213;-76
2024/01/15 06:37:18;;;;;;;24.13;14.87;;;-1.40;99.90;;;;;;5055372;28;20208;-76
2024/01/15 06:39:45;;;;;;;25.87;15.17;;;-1.30;99.90;;;;;;5055289;28;20220;-77
2024/01/15 06:42:11;;;;;;;23.00;14.23;;;-1.30;99.90;;;;;;5053454;28;20181;-76
2024/01/15 06:44:37;;;;;;;21.67;13.70;;;-1.30;99.90;;;;;;5051547;28;20220;-76
2024/01/15 06:47:02;;;;;;;26.07;14.70;;;-1.30;99.90;;;;;;5045362;28;20558;-76
2024/01/15 06:49:29;;;;;;;22.40;14.00;;;-1.30;99.90;;;;;;5057018;28;20264;-76
2024/01/15 06:51:55;;;;;;;23.60;14.17;;;-1.30;99.90;;;;;;5063862;28;20185;-77
2024/01/15 06:54:20;;;;;;;25.03;13.80;;;-1.30;99.90;;;;;;5065701;28;20197;-76
2024/01/15 06:56:46;;;;;;;26.67;14.90;;;-1.30;99.90;;;;;;5064044;28;20262;-76
2024/01/15 06:59:11;;;;;;;25.27;14.10;;;-1.20;99.90;;;;;;5064377;28;20177;-76
2024/01/15 07:01:37;;;;;;;23.87;14.23;;;-1.20;99.90;;;;;;5062145;28;20169;-77
2024/01/15 07:04:03;;;;;;;24.07;15.23;;;-1.20;99.90;;;;;;5064660;28;20184;-77
2024/01/15 07:06:30;;;;;;;27.70;20.40;;;-1.20;99.90;;;;;;5063967;28;20201;-77
2024/01/15 07:08:56;;;;;;;25.20;15.30;;;-1.10;99.90;;;;;;5064620;28;20184;-77
2024/01/15 07:11:21;;;;;;;23.97;16.80;;;-1.10;99.90;;;;;;5065104;28;20264;-77
2024/01/15 07:13:47;;;;;;;72.60;45.87;;;-1.10;99.90;;;;;;5063715;28;20208;-76
2024/01/15 07:16:13;;;;;;;55.27;30.10;;;-1.10;99.90;;;;;;5063800;28;20208;-77
2024/01/15 07:18:38;;;;;;;31.80;18.33;;;-1.10;99.90;;;;;;5059533;28;20185;-77
2024/01/15 07:21:04;;;;;;;27.50;16.70;;;-1.10;99.90;;;;;;5055819;28;20181;-76
2024/01/15 07:23:31;;;;;;;27.63;16.37;;;-1.10;99.90;;;;;;5078801;28;20170;-75
2024/01/15 07:25:58;;;;;;;26.87;17.13;;;-1.10;99.90;;;;;;5055639;28;20311;-75
2024/01/15 07:28:24;;;;;;;27.17;16.30;;;-1.10;99.90;;;;;;5075132;28;20174;-75
2024/01/15 07:30:49;;;;;;;27.87;17.13;;;-1.10;99.90;;;;;;5061713;28;20587;-76
2024/01/15 07:33:15;;;;;;;30.43;17.87;;;-1.10;99.90;;;;;;5045571;28;20178;-75
2024/01/15 07:35:41;;;;;;;30.73;18.17;;;-1.10;99.90;;;;;;5040101;28;20206;-75
2024/01/15 07:38:06;;;;;;;29.90;16.73;;;-1.10;99.90;;;;;;5042377;28;20178;-76
2024/01/15 07:40:32;;;;;;;25.87;15.67;;;-1.20;99.90;;;;;;5041513;28;20196;-78
2024/01/15 07:42:59;;;;;;;30.53;18.93;;;-1.30;99.90;;;;;;5039992;28;20192;-78
2024/01/15 07:45:28;;;;;;;31.23;17.17;;;-1.30;99.90;;;;;;5041429;28;20196;-78
2024/01/15 07:47:54;;;;;;;29.63;19.63;;;-1.40;99.90;;;;;;5047613;28;20173;-76
2024/01/15 07:50:19;;;;;;;27.73;17.90;;;-1.40;99.90;;;;;;5066399;28;20218;-78
2024/01/15 07:52:45;;;;;;;27.77;15.83;;;-1.30;99.90;;;;;;5046119;28;20197;-77
2024/01/15 07:55:11;;;;;;;30.80;17.63;;;-1.30;99.90;;;;;;5057246;28;20206;-77
2024/01/15 07:57:36;;;;;;;32.77;18.93;;;-1.20;99.90;;;;;;5039649;28;20229;-76
2024/01/15 08:00:06;;;;;;;28.87;17.63;;;-1.10;99.90;;;;;;5042247;28;20205;-77
2024/01/15 08:02:32;;;;;;;32.47;20.80;;;-1.10;99.90;;;;;;5041051;28;20185;-76
2024/01/15 08:04:58;;;;;;;39.47;26.53;;;-1.00;99.90;;;;;;5058152;28;20186;-77
2024/01/15 08:07:25;;;;;;;27.53;17.03;;;-0.90;99.90;;;;;;5038837;28;20281;-75
2024/01/15 08:09:51;;;;;;;27.03;16.77;;;-0.90;99.90;;;;;;5039245;28;20182;-76
2024/01/15 08:12:33;;;;;;;31.20;18.07;;;-0.80;99.90;;;;;;5062032;28;20178;-77
2024/01/15 08:14:59;;;;;;;36.93;23.63;;;-0.70;99.90;;;;;;5057664;28;20215;-76
2024/01/15 08:17:28;;;;;;;43.40;28.50;;;-0.70;99.90;;;;;;5085451;28;20232;-76
2024/01/15 08:19:54;;;;;;;31.33;19.37;;;-0.70;99.90;;;;;;5084495;28;20296;-76
2024/01/15 08:22:20;;;;;;;38.43;25.43;;;-0.70;99.90;;;;;;5084076;28;20182;-77
2024/01/15 08:24:45;;;;;;;40.00;25.40;;;-0.70;99.90;;;;;;5079855;28;20239;-75
2024/01/15 08:27:11;;;;;;;31.60;18.17;;;-0.70;99.90;;;;;;5075383;28;20204;-75
2024/01/15 08:29:37;;;;;;;25.40;15.07;;;-0.70;99.90;;;;;;5074682;28;20268;-75
2024/01/15 08:32:03;;;;;;;26.47;16.13;;;-0.70;99.90;;;;;;5078873;28;20216;-76
2024/01/15 08:34:28;;;;;;;27.87;17.77;;;-0.70;99.90;;;;;;5076812;28;20209;-75
2024/01/15 08:37:03;;;;;;;31.47;18.00;;;-0.80;99.90;;;;;;5082509;28;20220;-76
2024/01/15 08:42:05;;;;;;;26.53;16.53;;;-0.70;99.90;;;;;;5903096;22;20237;-82
2024/01/15 08:44:30;;;;;;;28.43;17.63;;;-0.80;99.90;;;;;;5036040;28;20551;-83
2024/01/15 08:46:56;;;;;;;22.87;15.00;;;-0.70;99.90;;;;;;5038443;28;20189;-83
2024/01/15 08:49:21;;;;;;;23.00;15.40;;;-0.70;99.90;;;;;;5036385;28;20670;-83
2024/01/15 08:51:47;;;;;;;25.47;14.37;;;-0.70;99.90;;;;;;5037328;28;20198;-83
2024/01/15 08:54:13;;;;;;;20.63;14.07;;;-0.70;99.90;;;;;;5036851;28;20210;-83
2024/01/15 08:56:40;;;;;;;21.20;13.50;;;-0.70;99.90;;;;;;5036877;28;20190;-83
2024/01/15 08:59:05;;;;;;;23.03;13.47;;;-0.60;99.90;;;;;;5036672;28;20181;-83
2024/01/15 09:01:31;;;;;;;22.13;13.53;;;-0.50;99.90;;;;;;5036538;28;20187;-83
2024/01/15 09:03:56;;;;;;;24.40;13.43;;;-0.50;99.90;;;;;;5037077;28;20245;-83
2024/01/15 09:06:22;;;;;;;23.77;13.97;;;-0.40;99.90;;;;;;5036802;28;20186;-83
2024/01/15 09:08:47;;;;;;;47.00;26.63;;;-0.40;99.90;;;;;;5036356;28;20217;-83
2024/01/15 09:11:13;;;;;;;27.80;16.57;;;-0.50;99.90;;;;;;5036737;28;20214;-83
2024/01/15 09:13:38;;;;;;;25.60;16.20;;;-0.50;99.90;;;;;;5036192;28;20193;-83
2024/01/15 09:16:05;;;;;;;24.07;15.70;;;-0.50;99.90;;;;;;5036306;28;20175;-83
2024/01/15 09:18:31;;;;;;;27.63;17.80;;;-0.50;99.90;;;;;;5035473;28;20553;-83
2024/01/15 09:20:57;;;;;;;25.07;15.33;;;-0.50;99.90;;;;;;5035640;28;20203;-83
2024/01/15 09:23:22;;;;;;;27.83;18.63;;;-0.50;99.90;;;;;;5036295;28;20265;-83
2024/01/15 09:25:48;;;;;;;24.70;14.50;;;-0.50;99.90;;;;;;5035814;28;20187;-83
2024/01/15 09:28:14;;;;;;;23.87;15.37;;;-0.40;99.90;;;;;;5036735;28;20183;-83
2024/01/15 09:30:39;;;;;;;23.50;14.70;;;-0.30;99.90;;;;;;5034119;28;20203;-83
2024/01/15 09:33:05;;;;;;;20.63;12.90;;;-0.20;99.90;;;;;;5034147;28;20555;-83
2024/01/15 09:35:31;;;;;;;21.40;13.27;;;-0.10;99.90;;;;;;5033948;28;20293;-83
2024/01/15 09:37:56;;;;;;;21.83;13.30;;;-0.20;99.90;;;;;;5034018;28;20182;-83
2024/01/15 09:40:23;;;;;;;19.93;13.40;;;-0.20;99.90;;;;;;5033990;28;20202;-83
2024/01/15 09:42:50;;;;;;;24.03;13.57;;;-0.20;99.90;;;;;;5034075;28;20244;-83
2024/01/15 09:45:25;;;;;;;22.70;12.37;;;-0.10;99.90;;;;;;5033306;28;20179;-83
2024/01/15 09:47:51;;;;;;;22.60;12.47;;;-0.10;99.90;;;;;;5033867;28;20182;-83
2024/01/15 09:50:16;;;;;;;20.43;13.97;;;0.00;99.90;;;;;;5033615;28;20279;-83
2024/01/15 09:52:44;;;;;;;21.20;13.43;;;0.20;99.90;;;;;;5033697;28;20288;-83
2024/01/15 09:55:11;;;;;;;22.20;13.47;;;0.10;99.90;;;;;;5032592;28;20214;-83
2024/01/15 09:57:39;;;;;;;21.77;13.20;;;0.20;99.90;;;;;;5033853;28;20189;-83
2024/01/15 10:00:07;;;;;;;22.87;12.60;;;0.20;99.90;;;;;;5034106;28;20203;-83
2024/01/15 10:02:33;;;;;;;18.17;12.20;;;0.30;99.90;;;;;;5033873;28;20233;-83
2024/01/15 10:04:59;;;;;;;21.40;12.33;;;0.30;99.90;;;;;;5034172;28;20581;-83
2024/01/15 10:07:25;;;;;;;17.57;12.40;;;0.40;99.90;;;;;;5033847;28;20221;-83
2024/01/15 10:09:51;;;;;;;18.93;12.67;;;0.40;99.90;;;;;;5033730;28;20238;-83
2024/01/15 10:12:17;;;;;;;21.67;12.63;;;0.40;99.90;;;;;;5033710;28;20189;-83
2024/01/15 10:14:43;;;;;;;18.30;11.77;;;0.40;99.90;;;;;;5033804;28;20237;-83
2024/01/15 10:17:15;;;;;;;20.50;11.33;;;0.50;99.90;;;;;;5033725;28;20591;-83
2024/01/15 10:19:43;;;;;;;17.97;11.50;;;0.70;99.90;;;;;;5033369;28;20206;-83
2024/01/15 10:22:09;;;;;;;23.80;12.93;;;0.80;99.90;;;;;;5033576;28;20714;-83
2024/01/15 10:24:40;;;;;;;19.37;12.13;;;1.00;99.90;;;;;;5031657;28;20225;-82
2024/01/15 10:27:07;;;;;;;19.93;13.20;;;0.80;99.90;;;;;;5013192;28;20275;-83
2024/01/15 10:29:32;;;;;;;18.33;12.03;;;0.70;99.90;;;;;;5013551;28;20239;-82
2024/01/15 10:32:00;;;;;;;20.03;12.40;;;0.70;99.90;;;;;;5013349;28;20187;-82
2024/01/15 10:34:30;;;;;;;19.23;12.47;;;0.60;99.90;;;;;;5013288;28;20219;-83
2024/01/15 10:37:12;;;;;;;20.97;12.87;;;0.60;99.90;;;;;;5013387;28;20172;-83
2024/01/15 10:39:39;;;;;;;19.87;13.03;;;0.60;99.90;;;;;;5013378;28;20246;-83
2024/01/15 10:42:05;;;;;;;17.50;12.40;;;0.50;99.90;;;;;;5014798;28;20192;-83
2024/01/15 10:44:30;;;;;;;23.17;13.87;;;0.50;99.90;;;;;;5014507;28;20329;-83
2024/01/15 10:46:57;;;;;;;19.87;12.73;;;0.40;99.90;;;;;;5013516;28;20684;-83
2024/01/15 10:49:25;;;;;;;22.80;13.63;;;0.40;99.90;;;;;;5013395;28;20230;-83
2024/01/15 10:51:53;;;;;;;20.47;12.93;;;0.30;99.90;;;;;;5014559;28;20262;-83
2024/01/15 10:54:19;;;;;;;21.13;13.87;;;0.20;99.90;;;;;;5013230;28;20262;-83
2024/01/15 10:56:47;;;;;;;21.57;12.90;;;0.20;99.90;;;;;;5013785;28;20175;-83
2024/01/15 10:59:13;;;;;;;21.03;12.70;;;0.20;99.90;;;;;;5013200;28;20199;-83
2024/01/15 11:01:39;;;;;;;21.03;12.70;;;0.30;99.90;;;;;;5014183;28;20255;-83
2024/01/15 11:04:05;;;;;;;20.60;12.47;;;0.20;99.90;;;;;;5013502;28;20186;-82
2024/01/15 11:06:46;;;;;;;18.37;12.33;;;0.30;99.90;;;;;;5012985;28;20175;-83
2024/01/15 11:09:15;;;;;;;20.07;12.83;;;0.20;99.90;;;;;;5013418;28;20176;-83
2024/01/15 11:11:44;;;;;;;16.47;11.80;;;0.20;99.90;;;;;;5013722;28;20265;-83
2024/01/15 11:14:10;;;;;;;19.93;12.60;;;0.20;99.90;;;;;;5013970;28;20278;-83
2024/01/15 11:17:01;;;;;;;19.87;12.87;;;0.20;99.90;;;;;;5013346;28;20233;-83
2024/01/15 11:19:42;;;;;;;19.83;12.17;;;0.20;99.90;;;;;;5013189;28;20683;-83
2024/01/15 11:22:49;;;;;;;19.07;12.60;;;0.20;99.90;;;;;;5020644;28;20197;-83
2024/01/15 11:25:15;;;;;;;17.17;11.43;;;0.30;99.90;;;;;;5033298;28;20175;-83
2024/01/15 11:28:04;;;;;;;18.60;11.17;;;0.30;99.90;;;;;;5032695;28;20182;-83
2024/01/15 11:30:36;;;;;;;19.40;11.73;;;0.40;99.90;;;;;;5032151;28;20198;-83
2024/01/15 11:33:49;;;;;;;17.70;11.23;;;0.40;99.90;;;;;;5033854;28;20229;-83
2024/01/15 11:36:15;;;;;;;17.47;12.00;;;0.40;99.90;;;;;;5032402;28;20183;-83
2024/01/15 11:38:40;;;;;;;19.70;12.00;;;0.40;99.90;;;;;;5032530;28;20183;-83
2024/01/15 11:41:15;;;;;;;19.20;12.47;;;0.40;99.90;;;;;;5032417;28;20209;-83
2024/01/15 11:43:42;;;;;;;17.37;11.57;;;0.30;99.90;;;;;;5032321;28;20289;-83
2024/01/15 11:46:49;;;;;;;15.70;11.27;;;0.40;99.90;;;;;;5032340;28;20242;-83
2024/01/15 11:50:08;;;;;;;22.13;13.43;;;0.40;99.90;;;;;;5033662;28;20203;-83
2024/01/15 11:53:03;;;;;;;17.30;11.47;;;0.40;99.90;;;;;;5032491;28;20168;-83
2024/01/15 11:55:40;;;;;;;21.70;13.07;;;0.40;99.90;;;;;;5032415;28;20231;-83
2024/01/15 11:58:11;;;;;;;17.60;11.37;;;0.40;99.90;;;;;;5032433;28;20241;-83
2024/01/15 12:00:50;;;;;;;19.10;13.00;;;0.40;99.90;;;;;;5032155;28;20191;-83
2024/01/15 12:03:26;;;;;;;22.20;13.83;;;0.50;99.90;;;;;;5032398;28;20175;-83
2024/01/15 12:06:11;;;;;;;18.80;12.90;;;0.60;99.90;;;;;;5031838;28;20178;-83
2024/01/15 12:09:06;;;;;;;21.77;13.10;;;0.70;99.90;;;;;;5032482;28;20508;-83
2024/01/15 12:11:36;;;;;;;20.63;13.37;;;0.70;99.90;;;;;;5031939;28;20178;-83
2024/01/15 12:14:03;;;;;;;19.70;11.83;;;0.70;99.90;;;;;;5031860;28;20202;-83
2024/01/15 12:16:28;;;;;;;21.60;12.33;;;0.70;99.90;;;;;;5033109;28;20234;-83
2024/01/15 12:18:54;;;;;;;18.87;12.23;;;0.70;99.90;;;;;;5036143;28;20187;-83
2024/01/15 12:21:19;;;;;;;20.60;12.50;;;0.70;99.90;;;;;;5035750;28;20178;-83
2024/01/15 12:23:49;;;;;;;17.40;12.10;;;0.80;99.90;;;;;;5035888;28;20228;-83
2024/01/15 12:26:46;;;;;;;21.57;13.00;;;0.80;99.90;;;;;;5035837;28;20186;-83
2024/01/15 12:29:12;;;;;;;18.77;11.80;;;0.80;99.90;;;;;;5035369;28;20628;-83
2024/01/15 12:31:48;;;;;;;17.23;11.43;;;0.90;99.90;;;;;;5035420;28;20179;-83
2024/01/15 12:34:14;;;;;;;17.77;11.60;;;0.90;99.90;;;;;;5035144;28;20245;-83
2024/01/15 12:37:03;;;;;;;17.57;10.70;;;1.10;99.90;;;;;;5035847;28;20179;-83
2024/01/15 12:39:29;;;;;;;17.90;11.43;;;1.30;99.90;;;;;;5035463;28;20198;-83
2024/01/15 12:41:55;;;;;;;16.07;10.33;;;1.50;99.90;;;;;;5035379;28;20198;-83
2024/01/15 12:44:48;;;;;;;16.40;10.37;;;1.70;99.90;;;;;;5035588;28;20265;-83
2024/01/15 12:47:16;;;;;;;18.10;10.73;;;1.70;99.90;;;;;;5035467;28;20175;-83
2024/01/15 12:49:42;;;;;;;14.67;10.67;;;1.80;99.90;;;;;;5035310;28;20203;-83
2024/01/15 12:52:11;;;;;;;21.87;16.17;;;1.80;99.90;;;;;;5036433;28;20166;-82